Time;durP1;ratioP1;P1;durP2;ratioP2;P2;SDS_P1;SDS_P2;PMS_P1;PMS_P2;Temp;Humidity;BMP_temperature;BMP_pressure;BME280_temperature;BME280_humidity;BME280_pressure;Samples;Min_cycle;Max_cycle;Signal;HPM_P1;HPM_P2
2023/05/11 00:01:07;;;;;;;4.72;1.23;;;;;;;20.56;53.22;99792.25;4934087;29;20038;-69
2023/05/11 00:03:34;;;;;;;4.20;1.25;;;;;;;20.55;52.98;99791.41;4932854;29;20032;-69
2023/05/11 00:05:59;;;;;;;3.28;0.90;;;;;;;20.54;52.95;99797.66;4933552;29;20032;-69
2023/05/11 00:08:25;;;;;;;2.00;0.98;;;;;;;20.53;53.22;99785.31;4919711;29;20032;-70
2023/05/11 00:10:51;;;;;;;3.95;1.05;;;;;;;20.52;53.03;99780.97;4914862;29;20021;-68
2023/05/11 00:13:16;;;;;;;4.32;0.80;;;;;;;20.55;52.96;99791.41;4912713;29;20508;-69
2023/05/11 00:15:42;;;;;;;5.47;1.25;;;;;;;20.52;53.20;99787.13;4914908;29;20020;-70
2023/05/11 00:18:07;;;;;;;4.80;1.25;;;;;;;20.52;52.92;99788.91;4913422;29;20036;-71
2023/05/11 00:20:33;;;;;;;5.30;1.40;;;;;;;20.51;52.89;99785.41;4914541;29;20098;-70
2023/05/11 00:22:58;;;;;;;3.05;0.98;;;;;;;20.50;53.06;99788.16;4914771;29;20532;-70
2023/05/11 00:25:24;;;;;;;2.42;0.80;;;;;;;20.48;53.05;99784.72;4923879;29;20139;-69
2023/05/11 00:27:49;;;;;;;3.78;1.15;;;;;;;20.47;52.83;99783.88;4932666;29;20039;-70
2023/05/11 00:30:15;;;;;;;3.50;0.98;;;;;;;20.48;52.78;99784.72;4933480;29;20036;-70
2023/05/11 00:32:42;;;;;;;3.70;0.98;;;;;;;20.46;52.99;99779.50;4933399;29;20125;-70
2023/05/11 00:35:08;;;;;;;4.05;1.10;;;;;;;20.47;52.68;99777.69;4933355;29;20028;-71
2023/05/11 00:37:34;;;;;;;3.45;1.25;;;;;;;20.46;52.91;99776.84;4933488;29;20028;-69
2023/05/11 00:39:59;;;;;;;2.83;0.82;;;;;;;20.45;52.69;99774.28;4933469;29;20057;-70
2023/05/11 00:42:25;;;;;;;2.80;0.95;;;;;;;20.45;52.87;99768.97;4933131;29;20059;-71
2023/05/11 00:44:50;;;;;;;2.97;0.98;;;;;;;20.43;52.74;99776.16;4933133;29;20027;-71
2023/05/11 00:47:16;;;;;;;4.68;1.40;;;;;;;20.43;52.63;99777.00;4932994;29;20063;-70
2023/05/11 00:49:42;;;;;;;3.20;1.67;;;;;;;20.44;52.68;99772.56;4933005;29;20520;-69
2023/05/11 00:52:08;;;;;;;2.03;0.85;;;;;;;20.43;52.70;99765.56;4933056;29;20038;-69
2023/05/11 00:54:34;;;;;;;2.15;0.75;;;;;;;20.42;52.79;99761.19;4933047;28;20051;-70
2023/05/11 00:57:01;;;;;;;3.47;1.10;;;;;;;20.37;52.84;99757.00;4932623;29;20031;-70
2023/05/11 00:59:27;;;;;;;4.22;1.00;;;;;;;20.39;52.85;99754.28;4932942;29;20634;-68
2023/05/11 01:01:52;;;;;;;1.40;0.73;;;;;;;20.39;52.73;99760.41;4932889;29;20024;-70
2023/05/11 01:04:18;;;;;;;4.53;1.08;;;;;;;20.39;52.71;99754.28;4933150;29;20430;-70
2023/05/11 01:06:50;;;;;;;2.78;0.80;;;;;;;20.37;52.87;99751.69;4932861;29;20035;-69
2023/05/11 01:09:37;;;;;;;2.97;1.10;;;;;;;20.39;52.61;99755.13;4915780;29;20035;-69
2023/05/11 01:12:13;;;;;;;3.55;1.10;;;;;;;20.37;52.64;99746.41;4932504;29;20034;-70
2023/05/11 01:14:47;;;;;;;1.77;0.80;;;;;;;20.33;52.83;99747.50;4931055;29;20399;-69
2023/05/11 01:17:22;;;;;;;2.70;0.95;;;;;;;20.33;52.71;99752.78;4932787;29;20082;-69
2023/05/11 01:19:55;;;;;;;3.85;1.30;;;;;;;20.33;52.81;99755.44;4932801;29;20038;-70
2023/05/11 01:22:26;;;;;;;2.60;0.90;;;;;;;20.32;52.56;99748.44;4932730;29;20035;-70
2023/05/11 01:25:10;;;;;;;3.63;1.20;;;;;;;20.32;52.87;99747.56;4932673;29;20035;-69
2023/05/11 01:27:47;;;;;;;3.13;1.05;;;;;;;20.31;52.72;99751.16;4932449;29;20047;-69
2023/05/11 01:30:25;;;;;;;4.40;1.02;;;;;;;20.30;52.65;99750.31;4932611;29;20413;-71
2023/05/11 01:32:57;;;;;;;2.88;0.80;;;;;;;20.31;52.63;99751.16;4932818;29;20028;-70
2023/05/11 01:35:26;;;;;;;2.88;1.00;;;;;;;20.29;52.79;99748.59;4932653;29;20489;-69
2023/05/11 01:37:56;;;;;;;4.22;1.02;;;;;;;20.29;52.71;99747.75;4932573;29;20039;-69
2023/05/11 01:40:24;;;;;;;4.13;0.90;;;;;;;20.28;52.64;99751.34;4932245;29;20556;-70
2023/05/11 01:42:57;;;;;;;2.90;1.20;;;;;;;20.27;52.73;99750.47;4932463;29;20023;-70
2023/05/11 01:45:26;;;;;;;2.63;0.90;;;;;;;20.25;52.60;99747.91;4932383;29;20031;-70
2023/05/11 01:47:54;;;;;;;4.90;1.05;;;;;;;20.24;52.57;99745.34;4931961;29;20035;-70
2023/05/11 01:50:23;;;;;;;3.45;1.30;;;;;;;20.24;52.76;99737.41;4932397;29;20059;-69
2023/05/11 01:52:50;;;;;;;3.95;1.15;;;;;;;20.24;52.75;99740.06;4932498;29;20031;-69
2023/05/11 01:55:19;;;;;;;5.80;1.20;;;;;;;20.25;52.48;99736.47;4931641;28;20135;-70
2023/05/11 01:57:46;;;;;;;4.38;1.30;;;;;;;20.23;52.77;99739.19;4932040;29;20042;-70
2023/05/11 02:00:14;;;;;;;4.18;1.10;;;;;;;20.24;52.77;99737.41;4932349;29;20070;-69
2023/05/11 02:02:41;;;;;;;3.03;1.00;;;;;;;20.22;52.87;99742.78;4932124;29;20034;-69
2023/05/11 02:05:08;;;;;;;1.98;0.95;;;;;;;20.22;52.88;99741.91;4932296;29;20093;-70
2023/05/11 02:07:35;;;;;;;2.05;0.93;;;;;;;20.22;52.61;99741.91;4931948;29;20039;-69
2023/05/11 02:10:01;;;;;;;3.65;1.17;;;;;;;20.23;52.69;99740.97;4931766;28;20031;-69
2023/05/11 02:12:29;;;;;;;4.78;1.30;;;;;;;20.21;52.62;99734.91;4931935;29;20600;-70
2023/05/11 02:14:56;;;;;;;3.38;1.17;;;;;;;20.18;52.58;99735.94;4932132;28;20024;-70
2023/05/11 02:17:23;;;;;;;3.47;1.10;;;;;;;20.19;52.57;99729.69;4930156;29;20035;-70
2023/05/11 02:19:50;;;;;;;5.05;1.02;;;;;;;20.20;52.83;99733.19;4915689;29;20032;-70
2023/05/11 02:22:16;;;;;;;3.40;1.20;;;;;;;20.18;52.63;99729.75;4931875;29;20525;-70
2023/05/11 02:24:42;;;;;;;4.05;1.20;;;;;;;20.17;52.72;99725.41;4931470;29;20034;-70
2023/05/11 02:27:07;;;;;;;3.17;0.98;;;;;;;20.16;52.71;99729.88;4934541;28;20027;-69
2023/05/11 02:29:33;;;;;;;3.97;1.15;;;;;;;20.18;52.85;99724.47;4935203;28;20214;-71
2023/05/11 02:32:11;;;;;;;2.08;0.90;;;;;;;20.18;52.69;99725.31;4923393;29;20032;-69
2023/05/11 02:34:48;;;;;;;4.05;1.20;;;;;;;20.16;52.82;99721.03;4916252;29;20471;-69
2023/05/11 02:37:20;;;;;;;3.63;1.10;;;;;;;20.16;52.78;99724.56;4916022;29;20043;-69
2023/05/11 02:39:51;;;;;;;3.80;0.95;;;;;;;20.15;52.72;99719.34;4915845;29;20032;-70
2023/05/11 02:42:19;;;;;;;4.78;1.27;;;;;;;20.16;52.76;99726.34;4916110;29;20025;-70
2023/05/11 02:44:54;;;;;;;3.75;1.08;;;;;;;20.14;52.76;99718.47;4915940;29;20062;-70
2023/05/11 02:47:21;;;;;;;3.80;1.13;;;;;;;20.14;52.74;99722.94;4915713;29;20383;-70
2023/05/11 02:49:52;;;;;;;2.97;0.90;;;;;;;20.14;52.65;99712.34;4922253;29;20042;-69
2023/05/11 02:52:20;;;;;;;3.60;1.05;;;;;;;20.11;52.84;99723.94;4934382;29;20528;-70
2023/05/11 02:54:48;;;;;;;2.35;0.88;;;;;;;20.09;52.77;99710.78;4934662;28;20133;-68
2023/05/11 02:57:14;;;;;;;4.00;1.52;;;;;;;20.08;52.92;99711.72;4934847;29;20470;-69
2023/05/11 02:59:39;;;;;;;3.03;1.02;;;;;;;20.08;52.72;99709.06;4934789;29;20028;-69
2023/05/11 03:02:05;;;;;;;3.38;1.20;;;;;;;20.07;52.67;99707.38;4934818;29;20032;-69
2023/05/11 03:04:30;;;;;;;6.10;1.23;;;;;;;20.07;52.64;99707.38;4934627;29;20039;-70
2023/05/11 03:06:56;;;;;;;4.32;1.38;;;;;;;20.06;53.00;99705.66;4934404;29;20038;-70
2023/05/11 03:09:21;;;;;;;3.80;1.15;;;;;;;20.03;52.77;99697.88;4934500;28;20071;-71
2023/05/11 03:11:48;;;;;;;3.05;1.17;;;;;;;20.05;52.86;99697.78;4934573;29;20038;-69
2023/05/11 03:14:14;;;;;;;3.60;1.00;;;;;;;20.04;52.79;99696.91;4934442;29;20032;-70
2023/05/11 03:16:40;;;;;;;4.50;1.27;;;;;;;20.05;52.94;99698.63;4934493;29;20050;-70
2023/05/11 03:19:07;;;;;;;3.85;1.15;;;;;;;20.05;52.96;99693.34;4929775;29;20028;-70
2023/05/11 03:21:36;;;;;;;2.97;1.00;;;;;;;20.05;52.71;99692.50;4927049;29;20401;-70
2023/05/11 03:24:02;;;;;;;2.85;1.10;;;;;;;20.04;52.87;99696.91;4915918;29;20043;-70
2023/05/11 03:26:30;;;;;;;4.45;1.20;;;;;;;20.03;52.67;99689.91;4915378;29;20036;-70
2023/05/11 03:28:59;;;;;;;4.68;1.10;;;;;;;20.01;52.97;99694.44;4915232;29;20509;-70
2023/05/11 03:31:24;;;;;;;4.57;1.55;;;;;;;20.01;52.78;99686.50;4930324;29;20382;-69
2023/05/11 03:33:50;;;;;;;3.83;1.20;;;;;;;20.01;52.61;99691.81;4934181;29;20078;-70
2023/05/11 03:36:16;;;;;;;4.28;1.42;;;;;;;20.01;52.79;99698.88;4916900;29;20028;-68
2023/05/11 03:38:45;;;;;;;4.82;1.20;;;;;;;20.01;52.70;99686.50;4934341;29;20031;-69
2023/05/11 03:41:14;;;;;;;5.07;1.20;;;;;;;19.99;52.94;99688.34;4934205;29;20457;-70
2023/05/11 03:43:41;;;;;;;3.58;1.27;;;;;;;19.96;52.93;99686.72;4934360;29;20036;-70
2023/05/11 03:46:07;;;;;;;4.22;1.42;;;;;;;19.96;52.80;99693.84;4933949;29;20071;-70
2023/05/11 03:48:33;;;;;;;3.00;0.98;;;;;;;19.94;52.96;99685.06;4934164;28;20394;-70
2023/05/11 03:50:59;;;;;;;5.45;1.50;;;;;;;19.94;52.67;99685.94;4933688;29;20020;-70
2023/05/11 03:53:25;;;;;;;4.40;1.60;;;;;;;19.94;52.74;99682.41;4933994;28;20035;-70
2023/05/11 03:55:51;;;;;;;3.63;1.05;;;;;;;19.94;52.73;99679.78;4934025;29;20028;-69
2023/05/11 03:58:17;;;;;;;3.40;0.93;;;;;;;19.92;52.84;99679.00;4933804;29;20028;-70
2023/05/11 04:00:42;;;;;;;3.15;0.90;;;;;;;19.94;53.01;99685.06;4933822;29;20078;-71
2023/05/11 04:03:08;;;;;;;4.25;1.42;;;;;;;19.92;52.87;99682.53;4916847;29;20505;-70
2023/05/11 04:05:34;;;;;;;4.05;1.10;;;;;;;19.92;52.75;99679.00;4933361;29;20020;-70
2023/05/11 04:08:00;;;;;;;3.75;0.98;;;;;;;19.91;52.86;99677.31;4933784;28;20027;-70
2023/05/11 04:10:26;;;;;;;3.78;1.40;;;;;;;19.91;52.72;99685.25;4933933;28;20024;-69
2023/05/11 04:12:52;;;;;;;3.95;1.10;;;;;;;19.89;52.87;99676.53;4933836;28;20558;-71
2023/05/11 04:15:18;;;;;;;3.70;1.30;;;;;;;19.89;52.83;99672.06;4913693;28;20024;-69
2023/05/11 04:17:43;;;;;;;2.65;1.00;;;;;;;19.86;52.98;99672.25;4914803;29;20498;-70
2023/05/11 04:20:09;;;;;;;3.58;1.05;;;;;;;19.86;52.88;99673.09;4914448;29;20115;-69
2023/05/11 04:22:34;;;;;;;4.35;1.40;;;;;;;19.88;53.05;99674.78;4914737;29;20390;-70
2023/05/11 04:24:59;;;;;;;4.35;1.23;;;;;;;19.84;53.04;99668.81;4914784;29;20096;-71
2023/05/11 04:27:25;;;;;;;3.63;1.27;;;;;;;19.85;53.08;99665.22;4931466;28;20036;-69
2023/05/11 04:29:50;;;;;;;3.80;1.30;;;;;;;19.88;52.87;99680.09;4933376;29;20371;-70
2023/05/11 04:32:16;;;;;;;2.65;1.17;;;;;;;19.85;52.95;99665.22;4933480;28;20020;-69
2023/05/11 04:34:41;;;;;;;5.65;1.20;;;;;;;19.84;53.13;99663.50;4933131;29;20031;-70
2023/05/11 04:37:06;;;;;;;4.72;1.33;;;;;;;19.84;52.86;99664.38;4933459;28;20028;-70
2023/05/11 04:39:33;;;;;;;6.13;2.08;;;;;;;19.84;52.84;99659.09;4929155;28;20482;-69
2023/05/11 04:41:59;;;;;;;4.25;1.08;;;;;;;19.83;53.01;99664.47;4914295;29;20479;-69
2023/05/11 04:44:25;;;;;;;2.92;1.02;;;;;;;19.84;52.79;99659.09;4914269;29;20043;-69
2023/05/11 04:46:54;;;;;;;2.97;1.10;;;;;;;19.81;53.01;99656.59;4914263;29;20375;-70
2023/05/11 04:49:20;;;;;;;4.13;1.35;;;;;;;19.82;53.15;99668.88;4915921;29;20395;-70
2023/05/11 04:51:45;;;;;;;5.15;1.52;;;;;;;19.82;52.92;99665.41;4933290;29;20062;-70
2023/05/11 04:54:10;;;;;;;3.58;1.17;;;;;;;19.80;52.94;99667.28;4933078;28;20055;-69
2023/05/11 04:56:39;;;;;;;3.25;1.40;;;;;;;19.80;52.93;99665.47;4916012;29;20158;-70
2023/05/11 04:59:05;;;;;;;4.10;1.50;;;;;;;19.80;52.89;99669.94;4933089;29;20115;-69
2023/05/11 05:01:31;;;;;;;2.25;0.90;;;;;;;19.79;53.17;99669.06;4933002;29;20036;-70
2023/05/11 05:03:56;;;;;;;5.00;1.50;;;;;;;19.78;53.00;99675.31;4932813;29;20091;-69
2023/05/11 05:06:21;;;;;;;2.80;0.98;;;;;;;19.74;52.82;99668.44;4933110;29;20024;-70
2023/05/11 05:08:47;;;;;;;3.92;1.23;;;;;;;19.75;53.22;99674.63;4932968;29;20070;-69
2023/05/11 05:11:12;;;;;;;2.97;1.02;;;;;;;19.75;53.24;99680.75;4932895;29;20032;-70
2023/05/11 05:13:37;;;;;;;4.68;1.20;;;;;;;19.73;53.04;99666.75;4933156;29;20035;-70
2023/05/11 05:16:03;;;;;;;6.47;1.27;;;;;;;19.74;52.93;99668.44;4928895;29;20546;-70
2023/05/11 05:18:28;;;;;;;3.50;1.38;;;;;;;19.74;53.17;99679.03;4932532;28;20059;-70
2023/05/11 05:20:54;;;;;;;3.25;1.15;;;;;;;19.74;53.01;99681.69;4915682;29;20520;-71
2023/05/11 05:23:19;;;;;;;3.35;1.20;;;;;;;19.74;53.11;99684.34;4932852;28;20027;-68
2023/05/11 05:25:45;;;;;;;4.22;1.08;;;;;;;19.74;53.06;99679.03;4924677;28;20035;-70
2023/05/11 05:28:10;;;;;;;4.85;1.38;;;;;;;19.73;53.03;99677.34;4913521;29;20044;-70
2023/05/11 05:30:36;;;;;;;4.30;1.20;;;;;;;19.72;53.13;99680.91;4913014;29;20047;-71
2023/05/11 05:33:01;;;;;;;4.28;1.10;;;;;;;19.68;53.05;99679.38;4913340;29;20398;-71
2023/05/11 05:35:27;;;;;;;3.97;1.10;;;;;;;19.69;52.97;99675.78;4921192;29;20038;-69
2023/05/11 05:37:52;;;;;;;3.90;1.38;;;;;;;19.66;53.05;99682.06;4932508;29;20182;-71
2023/05/11 05:40:18;;;;;;;4.93;1.33;;;;;;;19.69;52.98;99681.06;4932590;28;20032;-70
2023/05/11 05:42:43;;;;;;;5.63;1.60;;;;;;;19.67;53.06;99682.94;4932511;29;20027;-70
2023/05/11 05:45:09;;;;;;;14.38;2.75;;;;;;;19.70;54.66;99686.28;4931983;29;20105;-69
2023/05/11 05:47:34;;;;;;;13.23;2.65;;;;;;;19.72;55.92;99686.22;4915311;29;20032;-72
2023/05/11 05:50:00;;;;;;;10.30;3.03;;;;;;;19.75;55.91;99680.75;4921137;29;20024;-71
2023/05/11 05:52:25;;;;;;;8.70;2.17;;;;;;;19.78;55.99;99685.03;4931807;29;20016;-73
2023/05/11 05:54:51;;;;;;;8.02;2.17;;;;;;;19.76;56.14;99682.44;4923389;29;20048;-71
2023/05/11 05:57:16;;;;;;;6.35;2.13;;;;;;;19.76;55.45;99690.38;4932114;29;20028;-71
2023/05/11 05:59:41;;;;;;;8.23;2.38;;;;;;;19.76;55.61;99689.56;4921575;28;20062;-70
2023/05/11 06:02:07;;;;;;;10.27;2.03;;;;;;;19.77;55.25;99697.44;4920475;29;20048;-72
2023/05/11 06:04:33;;;;;;;5.93;1.75;;;;;;;19.75;55.18;99691.34;4946678;28;20036;-70
2023/05/11 06:06:59;;;;;;;8.77;1.92;;;;;;;19.76;55.05;99692.19;4927114;29;20035;-71
2023/05/11 06:09:25;;;;;;;8.07;1.83;;;;;;;19.72;55.24;99686.22;4925296;29;20504;-69
2023/05/11 06:11:52;;;;;;;7.85;2.00;;;;;;;19.73;55.09;99687.91;4923724;29;20036;-72
2023/05/11 06:14:19;;;;;;;10.07;2.75;;;;;;;19.73;54.45;99691.41;4925766;29;20039;-71
2023/05/11 06:16:44;;;;;;;5.90;1.92;;;;;;;19.70;54.74;99686.28;4921999;29;20033;-72
2023/05/11 06:19:10;;;;;;;7.00;1.85;;;;;;;19.72;54.44;99681.75;4925171;29;20051;-69
2023/05/11 06:21:35;;;;;;;6.57;1.58;;;;;;;19.73;54.46;99683.47;4932027;29;20398;-70
2023/05/11 06:24:01;;;;;;;5.15;1.70;;;;;;;19.72;54.51;99684.41;4915486;29;20501;-70
2023/05/11 06:26:27;;;;;;;7.78;2.17;;;;;;;19.73;54.46;99682.63;4912985;29;20028;-70
2023/05/11 06:28:53;;;;;;;7.13;1.95;;;;;;;19.76;54.28;99682.44;4912939;29;20032;-70
2023/05/11 06:31:18;;;;;;;9.50;1.77;;;;;;;19.76;54.17;99685.09;4912478;29;20055;-71
2023/05/11 06:33:44;;;;;;;7.68;1.75;;;;;;;19.75;54.26;99680.75;4919671;29;20036;-70
2023/05/11 06:36:09;;;;;;;6.97;1.55;;;;;;;19.74;54.21;99686.97;4929973;29;20055;-71
2023/05/11 06:38:35;;;;;;;7.30;1.45;;;;;;;19.75;54.15;99686.03;4927599;29;20020;-71
2023/05/11 06:41:00;;;;;;;5.53;1.30;;;;;;;19.75;53.90;99686.03;4925023;29;20444;-69
2023/05/11 06:43:26;;;;;;;6.50;1.63;;;;;;;19.76;54.07;99669.22;4931755;29;20482;-71
2023/05/11 06:45:51;;;;;;;6.53;1.73;;;;;;;19.80;53.93;99677.88;4931060;29;20047;-72
2023/05/11 06:48:17;;;;;;;5.53;1.55;;;;;;;19.79;53.80;99682.31;4931429;29;20273;-71
2023/05/11 06:50:42;;;;;;;5.03;1.17;;;;;;;19.80;53.73;99684.00;4931275;29;20024;-71
2023/05/11 06:53:09;;;;;;;4.63;1.70;;;;;;;19.81;53.87;99684.88;4931294;29;20028;-71
2023/05/11 06:55:35;;;;;;;3.30;1.20;;;;;;;19.81;53.88;99688.38;4931368;29;20048;-70
2023/05/11 06:58:00;;;;;;;6.22;1.33;;;;;;;19.81;53.78;99683.06;4931339;29;20039;-71
2023/05/11 07:00:25;;;;;;;4.55;1.45;;;;;;;19.84;53.70;99685.56;4930938;29;20028;-70
2023/05/11 07:02:51;;;;;;;8.57;1.67;;;;;;;19.88;53.85;99685.41;4931507;29;20035;-72
2023/05/11 07:05:17;;;;;;;5.18;1.30;;;;;;;19.85;53.64;99687.28;4931024;29;20033;-71
2023/05/11 07:07:42;;;;;;;7.72;1.67;;;;;;;19.85;53.69;99692.56;4931399;29;20031;-70
2023/05/11 07:10:08;;;;;;;4.03;1.30;;;;;;;19.84;53.43;99680.28;4931254;29;20040;-70
2023/05/11 07:12:34;;;;;;;5.10;1.60;;;;;;;19.85;53.36;99687.28;4920130;29;20043;-71
2023/05/11 07:14:59;;;;;;;4.43;1.70;;;;;;;19.86;53.52;99675.75;4915060;29;20032;-68
2023/05/11 07:17:25;;;;;;;4.15;1.70;;;;;;;19.84;53.44;99677.63;4915403;29;20044;-69
2023/05/11 07:19:51;;;;;;;3.58;1.35;;;;;;;19.85;53.47;99676.69;4915494;29;20024;-71
2023/05/11 07:22:17;;;;;;;5.70;1.65;;;;;;;19.89;53.48;99685.31;4915707;29;20024;-70
2023/05/11 07:24:42;;;;;;;4.07;1.40;;;;;;;19.86;53.34;99678.38;4915293;28;20111;-69
2023/05/11 07:27:08;;;;;;;6.38;1.65;;;;;;;19.89;53.37;99679.19;4929617;29;20119;-70
2023/05/11 07:29:33;;;;;;;3.60;1.30;;;;;;;19.87;53.41;99673.97;4934105;29;20054;-69
2023/05/11 07:31:59;;;;;;;4.85;1.23;;;;;;;19.88;53.38;99674.78;4934332;28;20093;-71
2023/05/11 07:34:24;;;;;;;4.25;1.75;;;;;;;19.91;53.19;99669.34;4934258;28;20040;-70
2023/05/11 07:36:50;;;;;;;5.25;1.73;;;;;;;19.93;53.22;99665.69;4934216;29;20067;-70
2023/05/11 07:39:15;;;;;;;5.78;1.80;;;;;;;19.96;53.00;99667.34;4934374;29;20460;-71
2023/05/11 07:41:41;;;;;;;4.03;1.25;;;;;;;19.96;53.07;99668.19;4934324;29;20481;-69
2023/05/11 07:44:06;;;;;;;3.60;1.20;;;;;;;19.97;53.06;99669.06;4933731;28;20089;-70
2023/05/11 07:46:32;;;;;;;4.10;1.40;;;;;;;19.96;52.96;99662.91;4929929;29;20032;-71
2023/05/11 07:48:57;;;;;;;4.45;1.15;;;;;;;19.99;52.88;99657.44;4915251;29;20032;-70
2023/05/11 07:51:23;;;;;;;5.97;1.48;;;;;;;19.99;52.89;99659.22;4933762;29;20123;-71
2023/05/11 07:53:48;;;;;;;4.35;1.30;;;;;;;20.01;52.75;99653.84;4934112;28;20502;-70
2023/05/11 07:56:14;;;;;;;4.38;1.25;;;;;;;20.01;52.72;99660.03;4934149;29;20537;-70
2023/05/11 07:58:39;;;;;;;3.92;1.50;;;;;;;19.99;52.87;99651.28;4933471;29;20437;-70
2023/05/11 08:01:05;;;;;;;5.70;1.33;;;;;;;20.03;52.74;99658.13;4933974;29;20107;-70
2023/05/11 08:03:30;;;;;;;5.68;1.58;;;;;;;20.02;52.68;99655.56;4933838;29;20058;-70
2023/05/11 08:05:55;;;;;;;5.75;1.42;;;;;;;20.04;52.60;99653.69;4932194;29;20107;-71
2023/05/11 08:08:21;;;;;;;3.85;1.25;;;;;;;20.04;52.60;99648.41;4933751;29;20039;-69
2023/05/11 08:10:46;;;;;;;4.07;1.20;;;;;;;20.06;52.59;99647.38;4930685;28;20036;-70
2023/05/11 08:13:12;;;;;;;4.63;1.35;;;;;;;20.05;52.55;99640.34;4914500;29;20055;-70
2023/05/11 08:15:37;;;;;;;5.65;1.48;;;;;;;20.05;52.68;99639.50;4914722;29;20513;-71
2023/05/11 08:18:03;;;;;;;5.65;1.45;;;;;;;20.03;52.85;99636.94;4914603;29;20078;-71
2023/05/11 08:20:29;;;;;;;4.50;1.40;;;;;;;20.06;52.65;99636.78;4931080;28;20031;-71
2023/05/11 08:22:54;;;;;;;6.43;1.52;;;;;;;20.05;52.68;99629.75;4933308;29;20035;-70
2023/05/11 08:25:20;;;;;;;4.68;1.30;;;;;;;20.06;52.59;99626.19;4933049;28;20034;-71
2023/05/11 08:27:45;;;;;;;5.05;1.45;;;;;;;20.08;52.80;99623.44;4933133;28;20032;-70
2023/05/11 08:30:11;;;;;;;4.25;1.30;;;;;;;20.10;52.61;99622.41;4933534;28;20027;-70
2023/05/11 08:32:36;;;;;;;5.18;1.60;;;;;;;20.09;52.82;99626.00;4933242;29;20118;-71
2023/05/11 08:35:03;;;;;;;3.60;1.50;;;;;;;20.09;52.49;99628.66;4933364;28;20032;-70
2023/05/11 08:37:29;;;;;;;4.18;1.20;;;;;;;20.09;52.68;99631.31;4927999;28;20023;-70
2023/05/11 08:39:54;;;;;;;5.28;1.20;;;;;;;20.10;52.76;99633.00;4914454;29;20441;-70
2023/05/11 08:42:23;;;;;;;4.80;1.15;;;;;;;20.09;52.61;99641.91;4914170;29;20028;-70
2023/05/11 08:44:50;;;;;;;5.85;1.65;;;;;;;20.08;52.66;99634.91;4914473;29;20032;-70
2023/05/11 08:47:16;;;;;;;4.70;1.15;;;;;;;20.10;52.48;99640.97;4913884;29;20044;-68
2023/05/11 08:49:42;;;;;;;4.35;1.17;;;;;;;20.09;52.75;99628.66;4924778;29;20024;-71
2023/05/11 08:52:09;;;;;;;5.18;1.17;;;;;;;20.09;52.62;99631.31;4933224;29;20040;-70
2023/05/11 08:54:34;;;;;;;4.60;1.10;;;;;;;20.11;52.79;99629.41;4932027;28;20047;-69
2023/05/11 08:57:01;;;;;;;5.95;1.33;;;;;;;20.11;52.68;99632.06;4933074;29;20032;-70
2023/05/11 08:59:28;;;;;;;5.07;1.35;;;;;;;20.10;52.79;99625.06;4961336;28;20031;-70
2023/05/11 09:01:54;;;;;;;4.32;1.30;;;;;;;20.11;52.61;99626.78;5007207;28;20041;-70
2023/05/11 09:04:21;;;;;;;5.00;1.30;;;;;;;20.10;52.70;99622.41;4945625;28;20081;-70
2023/05/11 09:06:48;;;;;;;2.97;1.15;;;;;;;20.12;52.77;99622.34;4932596;29;20059;-70
2023/05/11 09:09:15;;;;;;;4.28;1.20;;;;;;;20.11;52.85;99621.47;4932644;29;20060;-70
2023/05/11 09:11:41;;;;;;;4.85;1.67;;;;;;;20.15;52.60;99629.25;4915789;29;20031;-70
2023/05/11 09:14:06;;;;;;;3.25;1.30;;;;;;;20.12;52.53;99615.25;4932910;28;20111;-70
2023/05/11 09:16:31;;;;;;;5.47;1.55;;;;;;;20.15;52.63;99623.97;4932345;29;20036;-69
2023/05/11 09:19:04;;;;;;;3.33;1.00;;;;;;;20.16;52.64;99628.31;4932482;29;20027;-69
2023/05/11 09:21:30;;;;;;;3.15;1.00;;;;;;;20.16;52.72;99620.38;4932311;29;20377;-70
2023/05/11 09:23:58;;;;;;;4.95;1.55;;;;;;;20.15;52.92;99618.66;4914819;29;20019;-70
2023/05/11 09:26:25;;;;;;;6.25;1.45;;;;;;;20.17;52.81;99622.06;4932090;29;20481;-70
2023/05/11 09:28:54;;;;;;;4.60;1.65;;;;;;;20.17;52.90;99622.06;4931708;29;20028;-71
2023/05/11 09:31:40;;;;;;;5.00;1.45;;;;;;;20.16;52.76;99625.66;4931048;29;20028;-70
2023/05/11 09:34:12;;;;;;;;;;;;;;;20.17;52.63;99622.94;4931542;29;20078;-71
2023/05/11 09:36:38;;;;;;;5.82;1.48;;;;;;;20.18;52.81;99614.06;4930906;29;20423;-70
2023/05/11 09:39:03;;;;;;;3.67;1.00;;;;;;;20.18;52.63;99610.53;4931093;29;20055;-70
2023/05/11 09:41:30;;;;;;;4.05;1.40;;;;;;;20.18;52.60;99613.19;4930707;28;20032;-71
2023/05/11 09:44:12;;;;;;;4.13;1.10;;;;;;;20.18;52.73;99602.59;4932098;28;20375;-70
2023/05/11 09:46:40;;;;;;;4.43;1.40;;;;;;;20.19;52.69;99604.31;4914757;29;20118;-70
2023/05/11 09:49:06;;;;;;;4.65;1.30;;;;;;;20.20;52.83;99598.06;4932350;29;20544;-71
2023/05/11 09:51:35;;;;;;;2.95;1.25;;;;;;;20.20;52.84;99590.97;4932257;29;20071;-70
2023/05/11 09:54:14;;;;;;;3.75;1.30;;;;;;;20.21;52.75;99598.00;4931817;28;20520;-69
2023/05/11 09:56:50;;;;;;;4.25;1.30;;;;;;;20.20;52.77;99582.19;4932188;29;20035;-71
2023/05/11 09:59:36;;;;;;;4.20;1.08;;;;;;;20.21;52.94;99584.75;4932111;29;20055;-70
2023/05/11 10:02:20;;;;;;;3.33;1.10;;;;;;;20.22;52.54;99589.09;4931992;29;20628;-70
2023/05/11 10:04:47;;;;;;;4.63;1.55;;;;;;;20.24;52.70;99589.03;4931830;29;20032;-69
2023/05/11 10:07:32;;;;;;;3.53;1.20;;;;;;;20.22;53.03;99586.47;4931289;29;20500;-70
2023/05/11 10:10:00;;;;;;;4.75;1.75;;;;;;;20.24;52.88;99581.91;4931877;29;20043;-69
2023/05/11 10:12:26;;;;;;;3.75;1.15;;;;;;;20.25;52.78;99582.78;4931854;29;20494;-70
2023/05/11 10:15:00;;;;;;;5.63;1.75;;;;;;;20.25;52.72;99582.78;4931917;28;20027;-70
2023/05/11 10:17:27;;;;;;;5.55;1.48;;;;;;;20.25;52.49;99577.47;4931401;29;20133;-70
2023/05/11 10:19:55;;;;;;;4.68;1.33;;;;;;;20.24;52.53;99571.31;4932033;28;20023;-70
2023/05/11 10:22:22;;;;;;;2.85;1.02;;;;;;;20.27;52.66;99565.00;4931355;28;20020;-69
2023/05/11 10:24:47;;;;;;;3.88;1.45;;;;;;;20.27;52.71;99562.34;4931686;28;20437;-71
2023/05/11 10:27:13;;;;;;;3.50;1.23;;;;;;;20.27;52.52;99559.69;4931597;28;20028;-70
2023/05/11 10:29:39;;;;;;;3.17;1.20;;;;;;;20.28;52.56;99556.09;4943363;29;20028;-70
2023/05/11 10:32:06;;;;;;;4.32;1.25;;;;;;;20.29;52.79;99549.84;4912811;29;20074;-72
2023/05/11 10:34:32;;;;;;;5.72;1.52;;;;;;;20.30;52.68;99553.38;4912758;29;20028;-70
2023/05/11 10:37:00;;;;;;;3.97;1.17;;;;;;;20.32;52.75;99546.16;4912522;29;20036;-70
2023/05/11 10:39:28;;;;;;;3.70;1.10;;;;;;;20.33;52.56;99542.59;4912729;29;20047;-68
2023/05/11 10:42:08;;;;;;;4.93;1.02;;;;;;;20.33;52.58;99543.44;4914973;28;20031;-70
2023/05/11 10:44:52;;;;;;;3.10;1.10;;;;;;;20.35;52.69;99546.84;4920585;29;20054;-70
2023/05/11 10:47:27;;;;;;;2.53;1.05;;;;;;;20.35;52.65;99538.91;4914996;28;20032;-71
2023/05/11 10:50:11;;;;;;;2.88;1.17;;;;;;;20.36;52.60;99532.69;4916154;28;20046;-71
2023/05/11 10:52:59;;;;;;;3.85;1.13;;;;;;;20.37;52.81;99529.09;4925129;29;20174;-71
2023/05/11 10:55:54;;;;;;;5.25;1.30;;;;;;;20.39;52.72;99532.50;4922339;28;20044;-70
2023/05/11 10:58:36;;;;;;;3.63;1.48;;;;;;;20.38;52.66;99530.78;4991310;28;20635;-70
2023/05/11 11:01:25;;;;;;;3.80;1.20;;;;;;;20.38;52.63;99530.78;4993352;28;20054;-68
2023/05/11 11:04:04;;;;;;;5.85;1.67;;;;;;;20.39;52.55;99532.50;4993119;28;20030;-70
2023/05/11 11:06:30;;;;;;;5.88;1.10;;;;;;;20.40;52.32;99517.44;4992811;28;20042;-71
2023/05/11 11:08:57;;;;;;;5.32;1.50;;;;;;;20.41;52.44;99520.94;4993418;28;20074;-69
2023/05/11 11:11:44;;;;;;;6.18;1.67;;;;;;;20.42;52.60;99514.69;4993337;28;20407;-70
2023/05/11 11:14:11;;;;;;;4.90;1.23;;;;;;;20.43;52.48;99505.81;4993304;28;20041;-71
2023/05/11 11:16:37;;;;;;;4.22;1.15;;;;;;;20.43;52.43;99508.47;4993203;28;20038;-70
2023/05/11 11:19:27;;;;;;;3.90;1.20;;;;;;;20.42;52.37;99497.00;4993235;28;20077;-69
2023/05/11 11:21:53;;;;;;;4.32;1.17;;;;;;;20.44;52.26;99507.53;4992844;28;20042;-70
2023/05/11 11:24:37;;;;;;;4.20;1.35;;;;;;;20.45;52.34;99509.22;4993101;28;20076;-69
2023/05/11 11:27:03;;;;;;;2.72;0.90;;;;;;;20.44;52.26;99503.06;4993038;28;20038;-69
2023/05/11 11:29:30;;;;;;;3.92;1.38;;;;;;;20.44;52.42;99496.94;4992890;28;20045;-70
2023/05/11 11:32:24;;;;;;;4.85;1.17;;;;;;;20.45;52.33;99506.56;4992813;28;20035;-70
2023/05/11 11:34:50;;;;;;;2.65;0.98;;;;;;;20.44;52.05;99502.22;4950804;28;20758;-69
2023/05/11 11:37:16;;;;;;;3.85;1.20;;;;;;;20.44;52.03;99491.63;4915183;29;20028;-68